createdAt,value
2022-12-11T00:02:11.775Z,101017.38
2022-12-11T00:04:38.998Z,101021.06
2022-12-11T00:07:05.894Z,101014.16
2022-12-11T00:09:32.769Z,101006.88
2022-12-11T00:11:59.769Z,101001.56
2022-12-11T00:14:26.591Z,100998.34
2022-12-11T00:16:53.450Z,100995.47
2022-12-11T00:19:20.467Z,100989.13
2022-12-11T00:21:47.333Z,100992.13
2022-12-11T00:24:14.302Z,100993.53
2022-12-11T00:26:41.423Z,101003.25
2022-12-11T00:29:14.358Z,100998.59
2022-12-11T00:31:44.655Z,100996.41
2022-12-11T00:34:14.188Z,101003.75
2022-12-11T00:36:41.029Z,100997.78
2022-12-11T00:39:08.213Z,101001.53
2022-12-11T00:41:35.446Z,101007.63
2022-12-11T00:44:02.570Z,101005.78
2022-12-11T00:46:29.442Z,100997.38
2022-12-11T00:48:56.309Z,101002.66
2022-12-11T00:51:23.465Z,101006.94
2022-12-11T00:53:50.342Z,100997.63
2022-12-11T00:56:19.113Z,100992.56
2022-12-11T00:58:46.648Z,100998.66
2022-12-11T01:01:15.681Z,101000.31
2022-12-11T01:03:42.643Z,101006.44
2022-12-11T01:06:12.921Z,101008.47
2022-12-11T01:08:39.879Z,101012.53
2022-12-11T01:11:08.349Z,101014.97
2022-12-11T01:13:35.569Z,101017.00
2022-12-11T01:16:06.121Z,101015.56
2022-12-11T01:18:32.906Z,101016.94
2022-12-11T01:20:59.684Z,101019.44
2022-12-11T01:23:26.675Z,101022.22
2022-12-11T01:25:53.515Z,101024.28
2022-12-11T01:28:20.387Z,101021.91
2022-12-11T01:30:47.215Z,101020.28
2022-12-11T01:33:14.130Z,101022.31
2022-12-11T01:35:40.983Z,101023.53
2022-12-11T01:38:07.799Z,101025.56
2022-12-11T01:40:34.677Z,101024.97
2022-12-11T01:43:01.559Z,101022.50
2022-12-11T01:45:42.135Z,101024.72
2022-12-11T01:48:11.023Z,101024.34
2022-12-11T01:50:40.215Z,101013.63
2022-12-11T01:53:08.773Z,101023.41
2022-12-11T01:55:37.465Z,101020.13
2022-12-11T01:58:04.569Z,101013.00
2022-12-11T02:00:31.477Z,101017.28
2022-12-11T02:02:58.317Z,101024.00
2022-12-11T02:05:25.195Z,101016.66
2022-12-11T02:07:54.760Z,101003.03
2022-12-11T02:10:24.035Z,101003.03
2022-12-11T02:12:56.742Z,101004.25
2022-12-11T02:15:33.337Z,101005.88
2022-12-11T02:18:00.228Z,101009.69
2022-12-11T02:20:30.160Z,101004.03
2022-12-11T02:23:15.461Z,101009.25
2022-12-11T02:25:42.287Z,101014.34
2022-12-11T02:28:32.286Z,101010.47
2022-12-11T02:31:11.588Z,101008.66
2022-12-11T02:33:57.402Z,101016.00
2022-12-11T02:36:25.902Z,101015.19
2022-12-11T02:38:54.692Z,101010.88
2022-12-11T02:41:22.105Z,101009.28
2022-12-11T02:43:50.560Z,101002.84
2022-12-11T02:46:18.490Z,101005.06
2022-12-11T02:48:46.261Z,101001.22
2022-12-11T02:51:14.295Z,101003.41
2022-12-11T02:53:43.090Z,101003.19
2022-12-11T02:56:11.775Z,100997.53
2022-12-11T02:58:43.279Z,101001.81
2022-12-11T03:01:10.327Z,100998.53
2022-12-11T03:03:37.458Z,100999.97
2022-12-11T03:06:04.308Z,100999.78
2022-12-11T03:08:31.917Z,100999.16
2022-12-11T03:10:58.755Z,100995.09
2022-12-11T03:13:25.604Z,100993.63
2022-12-11T03:15:55.265Z,101004.81
2022-12-11T03:18:29.666Z,100997.47
2022-12-11T03:20:56.808Z,101000.66
2022-12-11T03:23:29.446Z,100997.63
2022-12-11T03:25:59.061Z,100991.72
2022-12-11T03:28:37.336Z,101001.97
2022-12-11T03:31:07.786Z,100997.38
2022-12-11T03:33:38.400Z,100998.41
2022-12-11T03:36:14.564Z,100991.53
2022-12-11T03:38:49.943Z,100997.47
2022-12-11T03:41:18.236Z,100997.88
2022-12-11T03:43:46.321Z,100990.19
2022-12-11T03:46:14.260Z,100983.47
2022-12-11T03:48:42.530Z,100985.91
2022-12-11T03:51:09.434Z,100985.31
2022-12-11T03:53:37.104Z,100980.47
2022-12-11T03:56:08.602Z,100976.63
2022-12-11T03:58:35.784Z,100975.00
2022-12-11T04:01:03.160Z,100971.34
2022-12-11T04:03:32.022Z,100966.25
2022-12-11T04:05:58.869Z,100971.94
2022-12-11T04:08:25.864Z,100971.31
2022-12-11T04:11:11.299Z,100965.25
2022-12-11T04:13:38.739Z,100955.69
2022-12-11T04:16:05.952Z,100955.50
2022-12-11T04:18:51.453Z,100950.00
2022-12-11T04:21:39.684Z,100950.00
2022-12-11T04:24:16.658Z,100949.00
2022-12-11T04:26:47.764Z,100946.56
2022-12-11T04:29:15.033Z,100940.28
2022-12-11T04:31:42.175Z,100943.94
2022-12-11T04:34:09.395Z,100941.25
2022-12-11T04:36:36.408Z,100950.38
2022-12-11T04:39:04.379Z,100954.25
2022-12-11T04:41:32.161Z,100952.19
2022-12-11T04:43:59.013Z,100946.13
2022-12-11T04:46:26.244Z,100945.50
2022-12-11T04:48:57.333Z,100948.75
2022-12-11T04:51:25.263Z,100944.50
2022-12-11T04:53:52.137Z,100940.03
2022-12-11T04:56:19.683Z,100940.22
2022-12-11T04:58:46.564Z,100937.81
2022-12-11T05:01:17.663Z,100954.47
2022-12-11T05:03:44.697Z,100951.81
2022-12-11T05:06:12.194Z,100940.25
2022-12-11T05:08:40.341Z,100949.38
2022-12-11T05:11:08.099Z,100938.81
2022-12-11T05:13:34.933Z,100944.91
2022-12-11T05:16:04.583Z,100938.59
2022-12-11T05:18:33.069Z,100930.72
2022-12-11T05:21:01.310Z,100932.72
2022-12-11T05:23:28.525Z,100935.75
2022-12-11T05:25:56.398Z,100944.31
2022-12-11T05:28:25.028Z,100934.78
2022-12-11T05:30:55.850Z,100943.91
2022-12-11T05:33:22.694Z,100940.06
2022-12-11T05:35:50.239Z,100939.44
2022-12-11T05:38:17.055Z,100945.72
2022-12-11T05:40:43.995Z,100940.44
2022-12-11T05:43:10.824Z,100937.00
2022-12-11T05:45:37.842Z,100945.28
2022-12-11T05:48:04.818Z,100948.69
2022-12-11T05:50:31.616Z,100953.56
2022-12-11T05:52:58.644Z,100941.31
2022-12-11T05:55:25.555Z,100953.84
2022-12-11T05:57:52.493Z,100951.16
2022-12-11T06:00:19.562Z,100952.94
2022-12-11T06:02:47.447Z,100952.31
2022-12-11T06:05:14.357Z,100943.84
2022-12-11T06:07:41.206Z,100951.97
2022-12-11T06:10:08.549Z,100951.75
2022-12-11T06:12:35.405Z,100942.41
2022-12-11T06:15:02.275Z,100957.41
2022-12-11T06:17:29.131Z,100956.78
2022-12-11T06:19:55.958Z,100965.59
2022-12-11T06:22:22.742Z,100962.97
2022-12-11T06:24:49.708Z,100975.13
2022-12-11T06:27:16.792Z,100978.13
2022-12-11T06:29:43.583Z,100980.56
2022-12-11T06:32:10.551Z,100978.72
2022-12-11T06:34:37.688Z,100976.69
2022-12-11T06:37:04.489Z,100979.66
2022-12-11T06:39:31.371Z,100971.31
2022-12-11T06:41:58.269Z,100973.97
2022-12-11T06:44:25.541Z,100975.97
2022-12-11T06:46:52.341Z,100977.56
2022-12-11T06:49:19.457Z,100980.59
2022-12-11T06:51:46.250Z,100979.91
2022-12-11T06:54:13.088Z,100974.00
2022-12-11T06:56:40.296Z,100971.81
2022-12-11T06:59:07.736Z,100974.06
2022-12-11T07:01:34.635Z,100956.63
2022-12-11T07:04:01.612Z,100943.22
2022-12-11T07:06:28.933Z,100932.63
2022-12-11T07:08:56.092Z,100937.59
2022-12-11T07:11:23.125Z,100933.06
2022-12-11T07:13:50.308Z,100932.25
2022-12-11T07:16:17.653Z,100936.69
2022-12-11T07:18:47.443Z,100929.03
2022-12-11T07:21:14.836Z,100925.34
2022-12-11T07:23:41.709Z,100937.97
2022-12-11T07:26:09.762Z,100940.22
2022-12-11T07:28:36.764Z,100946.47
2022-12-11T07:31:07.108Z,100947.09
2022-12-11T07:33:34.133Z,100960.03
2022-12-11T07:36:05.226Z,100952.69
2022-12-11T07:38:32.025Z,100944.81
2022-12-11T07:41:02.986Z,100940.34
2022-12-11T07:43:30.163Z,100935.38
2022-12-11T07:46:00.779Z,100927.22
2022-12-11T07:48:27.670Z,100920.81
2022-12-11T07:50:54.575Z,100928.59
2022-12-11T07:53:21.478Z,100927.34
2022-12-11T07:55:48.362Z,100919.91
2022-12-11T07:58:15.176Z,100930.59
2022-12-11T08:00:44.038Z,100922.59
2022-12-11T08:03:10.930Z,100918.81
2022-12-11T08:05:37.822Z,100922.53
2022-12-11T08:08:05.568Z,100913.81
2022-12-11T08:10:32.585Z,100914.63
2022-12-11T08:12:59.513Z,100909.44
2022-12-11T08:15:26.439Z,100910.94
2022-12-11T08:17:53.297Z,100913.00
2022-12-11T08:20:20.428Z,100913.09
2022-12-11T08:22:47.318Z,100913.91
2022-12-11T08:25:14.172Z,100922.50
2022-12-11T08:27:41.022Z,100930.22
2022-12-11T08:30:08.131Z,100937.13
2022-12-11T08:32:35.277Z,100934.94
2022-12-11T08:35:02.165Z,100934.81
2022-12-11T08:37:29.734Z,100934.19
2022-12-11T08:39:56.580Z,100925.06
2022-12-11T08:42:23.668Z,100924.25
2022-12-11T08:44:52.074Z,100927.91
2022-12-11T08:47:19.039Z,100939.88
2022-12-11T08:49:46.326Z,100947.41
2022-12-11T08:52:13.142Z,100960.66
2022-12-11T08:54:40.129Z,100965.53
2022-12-11T08:57:07.084Z,100962.09
2022-12-11T08:59:33.996Z,100954.06
2022-12-11T09:02:01.028Z,100952.38
2022-12-11T09:04:27.916Z,100958.47
2022-12-11T09:06:54.973Z,100968.41
2022-12-11T09:09:21.887Z,100968.19
2022-12-11T09:11:49.984Z,100976.94
2022-12-11T09:14:17.144Z,100972.66
2022-12-11T09:16:45.291Z,100978.13
2022-12-11T09:19:17.798Z,100971.44
2022-12-11T09:21:45.505Z,100980.97
2022-12-11T09:24:12.757Z,100971.78
2022-12-11T09:26:39.995Z,100976.28
2022-12-11T09:29:07.668Z,100980.34
2022-12-11T09:31:36.144Z,100973.88
2022-12-11T09:34:06.109Z,100979.22
2022-12-11T09:36:33.623Z,100973.94
2022-12-11T09:39:04.179Z,100970.94
2022-12-11T09:41:37.457Z,100967.69
2022-12-11T09:44:04.465Z,100962.22
2022-12-11T09:46:34.293Z,100959.34
2022-12-11T09:49:02.702Z,100964.44
2022-12-11T09:51:43.946Z,100964.84
2022-12-11T09:54:13.542Z,100962.78
2022-12-11T09:56:52.618Z,100965.22
2022-12-11T09:59:32.568Z,100966.19
2022-12-11T10:02:05.947Z,100965.38
2022-12-11T10:04:51.284Z,100965.34
2022-12-11T10:07:23.065Z,100967.72
2022-12-11T10:09:57.289Z,100965.06
2022-12-11T10:12:47.444Z,100965.59
2022-12-11T10:15:14.468Z,100965.53
2022-12-11T10:17:44.952Z,100960.75
2022-12-11T10:20:20.840Z,100957.13
2022-12-11T10:22:49.316Z,100950.22
2022-12-11T10:25:20.920Z,100952.50
2022-12-11T10:27:48.006Z,100948.25
2022-12-11T10:30:24.208Z,100946.59
2022-12-11T10:33:04.095Z,100947.03
2022-12-11T10:35:51.550Z,100940.69
2022-12-11T10:38:42.125Z,100934.81
2022-12-11T10:41:14.939Z,100930.41
2022-12-11T10:43:43.757Z,100921.22
2022-12-11T10:46:23.572Z,100916.97
2022-12-11T10:48:54.553Z,100912.81
2022-12-11T10:51:24.314Z,100918.03
2022-12-11T10:53:52.628Z,100908.59
2022-12-11T10:56:29.452Z,100903.06
2022-12-11T10:58:57.699Z,100904.25
2022-12-11T11:01:25.818Z,100909.38
2022-12-11T11:03:58.735Z,100896.03
2022-12-11T11:06:26.426Z,100901.94
2022-12-11T11:08:57.193Z,100903.78
2022-12-11T11:11:24.087Z,100902.31
2022-12-11T11:13:51.658Z,100890.09
2022-12-11T11:16:20.642Z,100891.66
2022-12-11T11:18:53.177Z,100893.97
2022-12-11T11:21:21.410Z,100885.94
2022-12-11T11:23:53.283Z,100880.25
2022-12-11T11:26:21.412Z,100875.78
2022-12-11T11:28:57.297Z,100879.72
2022-12-11T11:31:32.216Z,100870.09
2022-12-11T11:33:59.128Z,100865.34
2022-12-11T11:36:27.554Z,100864.84
2022-12-11T11:39:12.945Z,100883.69
2022-12-11T11:41:58.600Z,100876.66
2022-12-11T11:44:32.033Z,100884.00
2022-12-11T11:46:59.199Z,100882.16
2022-12-11T11:49:32.215Z,100880.97
2022-12-11T11:52:08.538Z,100873.25
2022-12-11T11:54:42.461Z,100870.03
2022-12-11T11:57:28.001Z,100873.00
2022-12-11T11:59:58.666Z,100879.00
2022-12-11T12:02:25.691Z,100872.16
2022-12-11T12:04:53.304Z,100877.13
2022-12-11T12:07:46.776Z,100870.38
2022-12-11T12:10:25.992Z,100872.59
2022-12-11T12:13:30.420Z,100871.41
2022-12-11T12:16:01.726Z,100868.66
2022-12-11T12:18:28.733Z,100880.19
2022-12-11T12:21:00.341Z,100868.59
2022-12-11T12:23:36.927Z,100880.16
2022-12-11T12:26:04.569Z,100869.94
2022-12-11T12:28:52.281Z,100866.31
2022-12-11T12:31:24.934Z,100867.34
2022-12-11T12:34:00.984Z,100874.38
2022-12-11T12:36:40.371Z,100885.25
2022-12-11T12:39:26.044Z,100877.94
2022-12-11T12:42:08.124Z,100859.88
2022-12-11T12:44:42.336Z,100855.72
2022-12-11T12:47:12.417Z,100859.38
2022-12-11T12:49:50.196Z,100860.09
2022-12-11T12:52:18.825Z,100852.53
2022-12-11T12:55:15.395Z,100851.22
2022-12-11T12:57:44.937Z,100853.50
2022-12-11T13:00:14.954Z,100846.72
2022-12-11T13:02:50.340Z,100839.31
2022-12-11T13:05:24.742Z,100816.53
2022-12-11T13:07:54.766Z,100795.34
2022-12-11T13:10:26.720Z,100802.53
2022-12-11T13:12:53.689Z,100795.72
2022-12-11T13:15:31.771Z,100791.53
2022-12-11T13:17:59.544Z,100779.63
2022-12-11T13:20:27.827Z,100783.50
2022-12-11T13:23:14.926Z,100792.63
2022-12-11T13:25:47.926Z,100811.00
2022-12-11T13:28:25.737Z,100807.75
2022-12-11T13:31:04.508Z,100826.66
2022-12-11T13:33:32.248Z,100842.28
2022-12-11T13:36:17.747Z,100828.84
2022-12-11T13:38:49.309Z,100847.03
2022-12-11T13:41:18.532Z,100847.63
2022-12-11T13:43:47.491Z,100850.03
2022-12-11T13:46:16.191Z,100856.59
2022-12-11T13:48:47.939Z,100864.91
2022-12-11T13:51:19.775Z,100871.19
2022-12-11T13:53:47.037Z,100889.75
2022-12-11T13:56:17.571Z,100884.06
2022-12-11T13:58:44.401Z,100894.34
2022-12-11T14:01:21.002Z,100890.44
2022-12-11T14:03:51.662Z,100904.03
2022-12-11T14:06:19.168Z,100902.78
2022-12-11T14:08:48.610Z,100895.03
2022-12-11T14:11:21.471Z,100904.94
2022-12-11T14:13:48.580Z,100919.06
2022-12-11T14:16:21.989Z,100917.81
2022-12-11T14:18:49.524Z,100922.59
2022-12-11T14:21:21.406Z,100919.13
2022-12-11T14:23:56.387Z,100913.03
2022-12-11T14:26:27.435Z,100918.84
2022-12-11T14:28:54.799Z,100918.41
2022-12-11T14:31:33.750Z,100918.63
2022-12-11T14:34:11.564Z,100915.97
2022-12-11T14:36:39.884Z,100915.69
2022-12-11T14:39:11.145Z,100912.06
2022-12-11T14:41:40.940Z,100913.91
2022-12-11T14:44:12.796Z,100910.81
2022-12-11T14:46:48.971Z,100912.91
2022-12-11T14:49:15.832Z,100909.50
2022-12-11T14:51:43.031Z,100908.28
2022-12-11T14:54:42.722Z,100915.22
2022-12-11T14:57:17.100Z,100916.75
2022-12-11T14:59:45.715Z,100924.59
2022-12-11T15:02:26.075Z,100923.91
2022-12-11T15:05:05.099Z,100918.91
2022-12-11T15:07:32.692Z,100918.78
2022-12-11T15:10:00.586Z,100918.09
2022-12-11T15:12:27.466Z,100921.22
2022-12-11T15:14:54.657Z,100923.41
2022-12-11T15:17:22.812Z,100925.63
2022-12-11T15:19:51.710Z,100924.00
2022-12-11T15:22:19.767Z,100929.09
2022-12-11T15:24:49.918Z,100923.78
2022-12-11T15:27:35.748Z,100929.50
2022-12-11T15:30:29.917Z,100925.00
2022-12-11T15:33:09.389Z,100922.16
2022-12-11T15:35:37.560Z,100924.00
2022-12-11T15:38:04.471Z,100923.56
2022-12-11T15:40:31.433Z,100918.41
2022-12-11T15:43:01.766Z,100924.06
2022-12-11T15:45:29.125Z,100917.53
2022-12-11T15:47:56.422Z,100925.09
2022-12-11T15:50:24.807Z,100917.38
2022-12-11T15:52:53.020Z,100920.44
2022-12-11T15:55:20.924Z,100921.16
2022-12-11T15:58:02.036Z,100920.88
2022-12-11T16:00:29.374Z,100915.16
2022-12-11T16:02:57.229Z,100922.59
2022-12-11T16:05:24.498Z,100922.97
2022-12-11T16:07:53.325Z,100923.47
2022-12-11T16:10:20.919Z,100924.88
2022-12-11T16:12:47.998Z,100919.81
2022-12-11T16:15:21.485Z,100910.06
2022-12-11T16:17:50.232Z,100922.22
2022-12-11T16:20:17.193Z,100922.22
2022-12-11T16:22:44.702Z,100921.84
2022-12-11T16:25:11.907Z,100918.56
2022-12-11T16:27:39.057Z,100925.59
2022-12-11T16:30:06.612Z,100924.06
2022-12-11T16:32:33.605Z,100923.41
2022-12-11T16:35:01.304Z,100917.75
2022-12-11T16:37:28.968Z,100919.28
2022-12-11T16:39:55.953Z,100917.88
2022-12-11T16:42:22.809Z,100924.28
2022-12-11T16:44:49.682Z,100922.66
2022-12-11T16:47:16.682Z,100919.81
2022-12-11T16:49:46.938Z,100922.22
2022-12-11T16:52:18.977Z,100916.16
2022-12-11T16:54:48.820Z,100913.25
2022-12-11T16:57:16.433Z,100918.56
2022-12-11T16:59:46.291Z,100921.44
2022-12-11T17:02:13.319Z,100922.03
2022-12-11T17:04:40.265Z,100931.22
2022-12-11T17:07:07.504Z,100916.72
2022-12-11T17:09:35.196Z,100919.72
2022-12-11T17:12:02.101Z,100920.41
2022-12-11T17:14:29.023Z,100917.88
2022-12-11T17:16:56.713Z,100916.06
2022-12-11T17:19:24.277Z,100913.91
2022-12-11T17:21:51.744Z,100903.16
2022-12-11T17:24:18.891Z,100907.38
2022-12-11T17:26:46.046Z,100904.94
2022-12-11T17:29:13.286Z,100900.97
2022-12-11T17:31:40.535Z,100903.34
2022-12-11T17:34:07.992Z,100903.03
2022-12-11T17:36:34.865Z,100904.06
2022-12-11T17:39:02.006Z,100898.34
2022-12-11T17:41:31.895Z,100894.06
2022-12-11T17:43:59.288Z,100895.56
2022-12-11T17:46:26.485Z,100892.63
2022-12-11T17:48:53.432Z,100888.78
2022-12-11T17:51:24.672Z,100889.16
2022-12-11T17:53:52.349Z,100888.19
2022-12-11T17:56:19.256Z,100885.50
2022-12-11T17:58:46.497Z,100888.69
2022-12-11T18:01:13.407Z,100883.34
2022-12-11T18:03:41.059Z,100880.44
2022-12-11T18:06:13.492Z,100881.66
2022-12-11T18:08:41.201Z,100872.75
2022-12-11T18:11:18.864Z,100878.50
2022-12-11T18:13:46.560Z,100879.50
2022-12-11T18:16:18.457Z,100885.19
2022-12-11T18:18:48.601Z,100878.78
2022-12-11T18:21:16.395Z,100875.28
2022-12-11T18:23:43.343Z,100879.75
2022-12-11T18:26:11.940Z,100874.44
2022-12-11T18:28:38.869Z,100877.59
2022-12-11T18:31:07.581Z,100879.28
2022-12-11T18:33:35.837Z,100880.47
2022-12-11T18:36:03.165Z,100881.44
2022-12-11T18:38:30.074Z,100877.19
2022-12-11T18:40:57.025Z,100880.25
2022-12-11T18:43:24.104Z,100876.44
2022-12-11T18:45:51.867Z,100861.78
2022-12-11T18:48:18.884Z,100857.31
2022-12-11T18:50:47.287Z,100856.69
2022-12-11T18:53:14.661Z,100855.50
2022-12-11T18:55:42.780Z,100853.44
2022-12-11T18:58:10.496Z,100847.53
2022-12-11T19:00:39.195Z,100842.66
2022-12-11T19:03:06.794Z,100846.31
2022-12-11T19:05:33.939Z,100843.50
2022-12-11T19:08:02.645Z,100848.69
2022-12-11T19:10:29.656Z,100843.59
2022-12-11T19:13:02.366Z,100848.66
2022-12-11T19:15:29.340Z,100848.16
2022-12-11T19:17:56.247Z,100846.94
2022-12-11T19:20:48.118Z,100841.63
2022-12-11T19:23:12.014Z,100836.34
2022-12-11T19:25:43.220Z,100846.94
2022-12-11T19:28:10.217Z,100842.38
2022-12-11T19:30:41.211Z,100847.16
2022-12-11T19:33:08.016Z,100848.59
2022-12-11T19:35:37.398Z,100849.63
2022-12-11T19:38:05.135Z,100851.84
2022-12-11T19:40:31.898Z,100852.59
2022-12-11T19:42:59.014Z,100853.44
2022-12-11T19:45:25.927Z,100853.13
2022-12-11T19:47:52.937Z,100849.38
2022-12-11T19:50:22.375Z,100852.25
2022-12-11T19:52:49.333Z,100852.31
2022-12-11T19:55:16.427Z,100856.44
2022-12-11T19:57:45.623Z,100859.03
2022-12-11T20:00:12.780Z,100853.72
2022-12-11T20:02:40.725Z,100844.22
2022-12-11T20:05:11.354Z,100854.59
2022-12-11T20:07:39.034Z,100848.91
2022-12-11T20:10:06.774Z,100848.56
2022-12-11T20:12:33.583Z,100849.41
2022-12-11T20:15:01.083Z,100849.03
2022-12-11T20:17:27.991Z,100846.75
2022-12-11T20:19:54.826Z,100850.63
2022-12-11T20:22:22.530Z,100848.06
2022-12-11T20:24:50.536Z,100842.47
2022-12-11T20:27:20.262Z,100843.53
2022-12-11T20:29:47.202Z,100844.31
2022-12-11T20:32:15.072Z,100844.75
2022-12-11T20:34:42.137Z,100842.53
2022-12-11T20:37:09.203Z,100840.28
2022-12-11T20:39:37.302Z,100847.19
2022-12-11T20:42:05.137Z,100843.56
2022-12-11T20:44:32.354Z,100844.81
2022-12-11T20:46:59.502Z,100842.59
2022-12-11T20:49:26.860Z,100846.66
2022-12-11T20:51:53.923Z,100835.00
2022-12-11T20:54:20.856Z,100838.06
2022-12-11T20:56:47.931Z,100838.66
2022-12-11T20:59:14.855Z,100842.53
2022-12-11T21:01:42.048Z,100837.84
2022-12-11T21:04:09.445Z,100844.56
2022-12-11T21:06:37.270Z,100839.47
2022-12-11T21:09:23.391Z,100841.31
2022-12-11T21:11:50.647Z,100844.16
2022-12-11T21:14:18.191Z,100847.16
2022-12-11T21:16:45.812Z,100855.34
2022-12-11T21:19:16.683Z,100854.97
2022-12-11T21:21:45.504Z,100852.09
2022-12-11T21:24:15.136Z,100858.59
2022-12-11T21:26:43.222Z,100861.06
2022-12-11T21:29:10.097Z,100862.22
2022-12-11T21:31:39.078Z,100862.03
2022-12-11T21:34:06.616Z,100865.47
2022-12-11T21:36:34.182Z,100865.47
2022-12-11T21:39:01.462Z,100864.66
2022-12-11T21:41:28.620Z,100866.69
2022-12-11T21:46:42.999Z,100862.94
2022-12-11T21:49:10.067Z,100861.56
2022-12-11T21:51:40.373Z,100858.09
2022-12-11T21:54:13.278Z,100858.94
2022-12-11T21:56:40.242Z,100860.50
2022-12-11T21:59:07.418Z,100857.66
2022-12-11T22:01:41.012Z,100866.63
2022-12-11T22:04:08.495Z,100864.56
2022-12-11T22:06:35.895Z,100852.75
2022-12-11T22:09:03.784Z,100865.78
2022-12-11T22:11:31.414Z,100865.50
2022-12-11T22:13:58.523Z,100863.66
2022-12-11T22:16:25.446Z,100868.94
2022-12-11T22:18:52.746Z,100874.69
2022-12-11T22:21:19.671Z,100870.56
2022-12-11T22:23:46.654Z,100873.06
2022-12-11T22:26:17.809Z,100870.97
2022-12-11T22:28:44.570Z,100874.59
2022-12-11T22:31:12.528Z,100881.25
2022-12-11T22:33:39.866Z,100879.31
2022-12-11T22:36:06.895Z,100874.34
2022-12-11T22:38:34.080Z,100872.81
2022-12-11T22:41:03.342Z,100872.81
2022-12-11T22:43:30.373Z,100880.00
2022-12-11T22:45:57.302Z,100859.25
2022-12-11T22:48:27.436Z,100862.91
2022-12-11T22:50:54.706Z,100853.75
2022-12-11T22:53:21.813Z,100850.88
2022-12-11T22:55:48.787Z,100856.75
2022-12-11T22:58:21.413Z,100857.56
2022-12-11T23:00:48.760Z,100862.81
2022-12-11T23:03:15.703Z,100864.00
2022-12-11T23:05:43.633Z,100863.72
2022-12-11T23:08:10.715Z,100864.53
2022-12-11T23:10:39.754Z,100866.97
2022-12-11T23:13:07.151Z,100856.16
2022-12-11T23:15:34.066Z,100859.75
2022-12-11T23:18:00.956Z,100860.53
2022-12-11T23:20:27.873Z,100863.63
2022-12-11T23:22:54.847Z,100858.97
2022-12-11T23:25:21.732Z,100869.97
2022-12-11T23:27:48.776Z,100865.22
2022-12-11T23:30:15.717Z,100867.38
2022-12-11T23:32:42.558Z,100874.13
2022-12-11T23:35:10.282Z,100868.22
2022-12-11T23:37:37.510Z,100870.22
2022-12-11T23:40:05.240Z,100864.84
2022-12-11T23:42:33.164Z,100867.31
2022-12-11T23:45:00.180Z,100865.50
2022-12-11T23:47:27.046Z,100877.88
2022-12-11T23:49:54.085Z,100880.69
2022-12-11T23:52:22.691Z,100880.44
2022-12-11T23:54:49.553Z,100890.31
2022-12-11T23:57:16.513Z,100892.63
2022-12-11T23:59:43.323Z,100892.03
